Time;durP1;ratioP1;P1;durP2;ratioP2;P2;SDS_P1;SDS_P2;PMS_P1;PMS_P2;Temp;Humidity;BMP_temperature;BMP_pressure;BME280_temperature;BME280_humidity;BME280_pressure;Samples;Min_cycle;Max_cycle;Signal;HPM_P1;HPM_P2
2022/11/14 00:04:52;;;;;;;;;;;17.70;74.50;;;;;;10589341;28;20018;-65
2022/11/14 00:09:53;;;;;;;;;;;17.60;74.30;;;;;;10590575;28;19939;-65
2022/11/14 00:14:55;;;;;;;;;;;17.60;74.20;;;;;;10571277;28;19977;-65
2022/11/14 00:19:57;;;;;;;;;;;17.60;74.30;;;;;;10590103;27;20429;-64
2022/11/14 00:24:59;;;;;;;;;;;17.60;74.20;;;;;;10590302;27;20314;-65
2022/11/14 00:30:01;;;;;;;;;;;17.60;74.00;;;;;;10572610;28;19971;-65
2022/11/14 00:35:03;;;;;;;;;;;17.60;74.00;;;;;;10571338;28;20069;-65
2022/11/14 00:40:05;;;;;;;;;;;17.60;74.10;;;;;;10589278;28;20039;-64
2022/11/14 00:45:07;;;;;;;;;;;17.50;73.90;;;;;;10589484;27;19939;-65
2022/11/14 00:50:09;;;;;;;;;;;17.50;73.70;;;;;;10588525;28;20058;-64
2022/11/14 00:55:10;;;;;;;;;;;17.50;73.80;;;;;;10588820;28;20357;-64
2022/11/14 01:00:13;;;;;;;;;;;17.50;73.70;;;;;;10588809;28;19936;-64
2022/11/14 01:05:15;;;;;;;;;;;17.50;73.90;;;;;;10587597;28;19938;-64
2022/11/14 01:10:16;;;;;;;;;;;17.50;73.80;;;;;;10597024;28;19978;-64
2022/11/14 01:15:18;;;;;;;;;;;17.50;73.80;;;;;;10595737;27;20055;-64
2022/11/14 01:20:20;;;;;;;;;;;17.40;73.60;;;;;;10595204;28;20026;-64
2022/11/14 01:25:22;;;;;;;;;;;17.40;73.40;;;;;;10595271;27;19931;-64
2022/11/14 01:30:24;;;;;;;;;;;17.40;73.50;;;;;;10595896;28;20022;-64
2022/11/14 01:35:25;;;;;;;;;;;17.40;73.40;;;;;;10595176;28;19936;-64
2022/11/14 01:40:27;;;;;;;;;;;17.40;73.40;;;;;;10596332;28;20360;-64
2022/11/14 01:45:44;;;;;;;;;;;17.40;73.40;;;;;;10595164;27;19932;-64
2022/11/14 01:50:49;;;;;;;;;;;17.40;73.40;;;;;;10593842;28;19939;-64
2022/11/14 01:55:51;;;;;;;;;;;17.40;73.20;;;;;;10576448;28;20031;-65
2022/11/14 02:06:15;;;;;;;;;;;17.30;73.10;;;;;;10477048;22;19977;-70
2022/11/14 02:11:17;;;;;;;;;;;17.30;73.00;;;;;;10387231;28;19996;-71
2022/11/14 02:16:19;;;;;;;;;;;17.30;73.00;;;;;;10386835;28;19937;-70
2022/11/14 02:21:20;;;;;;;;;;;17.30;73.00;;;;;;10386442;28;20035;-70
2022/11/14 02:26:22;;;;;;;;;;;17.30;72.90;;;;;;10386623;28;19933;-70
2022/11/14 02:31:24;;;;;;;;;;;17.30;72.90;;;;;;10385639;28;20017;-70
2022/11/14 02:36:25;;;;;;;;;;;17.30;72.80;;;;;;10384603;28;20013;-70
2022/11/14 02:41:27;;;;;;;;;;;17.30;72.80;;;;;;10385479;28;19934;-70
2022/11/14 02:46:29;;;;;;;;;;;17.20;72.60;;;;;;10385420;28;19934;-70
2022/11/14 02:51:31;;;;;;;;;;;17.30;72.40;;;;;;10386678;28;19965;-70
2022/11/14 02:56:32;;;;;;;;;;;17.20;72.40;;;;;;10384917;28;19934;-71
2022/11/14 03:01:34;;;;;;;;;;;17.20;72.30;;;;;;10384618;28;20741;-70
2022/11/14 03:06:36;;;;;;;;;;;17.20;72.30;;;;;;10384648;28;19934;-70
2022/11/14 03:11:37;;;;;;;;;;;17.20;72.20;;;;;;10384141;28;20483;-70
2022/11/14 03:16:39;;;;;;;;;;;17.20;72.20;;;;;;10384602;28;19934;-71
2022/11/14 03:21:41;;;;;;;;;;;17.20;72.10;;;;;;10384349;28;19941;-70
2022/11/14 03:26:43;;;;;;;;;;;17.20;72.10;;;;;;10366441;28;19973;-71
2022/11/14 03:31:45;;;;;;;;;;;17.10;72.00;;;;;;10383981;28;20012;-70
2022/11/14 03:36:46;;;;;;;;;;;17.10;71.90;;;;;;10384203;28;20347;-71
2022/11/14 03:41:48;;;;;;;;;;;17.10;72.00;;;;;;10383945;28;19934;-70
2022/11/14 03:46:50;;;;;;;;;;;17.10;71.90;;;;;;10381495;28;20020;-71
2022/11/14 03:51:52;;;;;;;;;;;17.10;72.00;;;;;;10383628;28;20020;-70
2022/11/14 03:56:53;;;;;;;;;;;17.10;72.00;;;;;;10383330;28;20032;-70
2022/11/14 04:01:55;;;;;;;;;;;17.10;71.90;;;;;;10382896;28;19934;-70
2022/11/14 04:06:57;;;;;;;;;;;17.00;71.90;;;;;;10382730;28;19969;-70
2022/11/14 04:11:59;;;;;;;;;;;17.00;71.70;;;;;;10383087;28;19934;-70
2022/11/14 04:17:00;;;;;;;;;;;17.00;71.90;;;;;;10382699;28;20033;-70
2022/11/14 04:22:02;;;;;;;;;;;17.00;71.70;;;;;;10382937;28;20028;-70
2022/11/14 04:27:04;;;;;;;;;;;17.00;71.70;;;;;;10365194;28;20297;-70
2022/11/14 04:32:06;;;;;;;;;;;17.00;71.70;;;;;;10382334;28;19933;-70
2022/11/14 04:37:08;;;;;;;;;;;17.00;71.60;;;;;;10383069;28;20934;-70
2022/11/14 04:42:10;;;;;;;;;;;17.00;71.60;;;;;;10381047;28;19934;-70
2022/11/14 04:47:12;;;;;;;;;;;17.00;71.50;;;;;;10383144;28;20888;-70
2022/11/14 04:52:13;;;;;;;;;;;17.00;71.50;;;;;;10381806;28;19934;-70
2022/11/14 04:57:16;;;;;;;;;;;17.00;71.50;;;;;;10382205;28;20040;-71
2022/11/14 05:02:18;;;;;;;;;;;16.90;71.40;;;;;;10381416;28;19972;-70
2022/11/14 05:07:20;;;;;;;;;;;17.00;71.40;;;;;;10381083;28;20020;-69
2022/11/14 05:12:21;;;;;;;;;;;16.90;71.40;;;;;;10381940;28;19946;-70
2022/11/14 05:17:23;;;;;;;;;;;16.90;71.30;;;;;;10379655;28;20041;-70
2022/11/14 05:22:25;;;;;;;;;;;16.90;71.20;;;;;;10381571;28;20372;-70
2022/11/14 05:27:27;;;;;;;;;;;16.90;71.10;;;;;;10380474;28;19956;-69
2022/11/14 05:32:29;;;;;;;;;;;16.90;71.10;;;;;;10380738;28;20020;-70
2022/11/14 05:37:31;;;;;;;;;;;16.90;71.10;;;;;;10380465;28;20001;-70
2022/11/14 05:42:32;;;;;;;;;;;16.90;70.60;;;;;;10379722;28;19941;-70
2022/11/14 05:47:34;;;;;;;;;;;17.00;71.20;;;;;;10378891;28;20439;-70
2022/11/14 05:52:35;;;;;;;;;;;17.10;71.00;;;;;;10379171;28;20495;-70
2022/11/14 05:57:37;;;;;;;;;;;17.30;70.70;;;;;;10387087;28;19942;-70
2022/11/14 06:02:39;;;;;;;;;;;17.30;70.40;;;;;;10387529;28;20070;-70
2022/11/14 06:07:41;;;;;;;;;;;17.40;70.10;;;;;;10386559;28;19933;-71
2022/11/14 06:12:43;;;;;;;;;;;17.40;69.90;;;;;;10369842;28;20475;-70
2022/11/14 06:17:45;;;;;;;;;;;17.40;69.80;;;;;;10386981;28;20304;-70
2022/11/14 06:22:46;;;;;;;;;;;17.40;69.70;;;;;;10385983;28;19979;-70
2022/11/14 06:27:48;;;;;;;;;;;17.40;69.70;;;;;;10384503;28;20079;-71
2022/11/14 06:32:55;;;;;;;;;;;17.30;69.70;;;;;;10385339;28;20032;-71
2022/11/14 06:37:58;;;;;;;;;;;17.30;69.70;;;;;;10385059;28;19940;-69
2022/11/14 06:42:59;;;;;;;;;;;17.20;70.30;;;;;;10386170;28;19992;-70
2022/11/14 06:48:01;;;;;;;;;;;17.20;71.10;;;;;;10385583;28;19940;-70
2022/11/14 06:53:05;;;;;;;;;;;17.20;71.00;;;;;;10383196;28;20809;-69
2022/11/14 06:58:07;;;;;;;;;;;17.20;71.60;;;;;;10384953;28;19933;-69
2022/11/14 07:03:08;;;;;;;;;;;17.20;71.70;;;;;;10384648;28;20858;-70
2022/11/14 07:08:10;;;;;;;;;;;17.20;71.30;;;;;;10383827;28;19969;-71
2022/11/14 07:13:20;;;;;;;;;;;17.20;71.10;;;;;;10385317;28;20407;-71
2022/11/14 07:18:22;;;;;;;;;;;17.10;71.20;;;;;;10384161;28;19977;-70
2022/11/14 07:23:23;;;;;;;;;;;17.10;71.20;;;;;;10383109;28;20056;-70
2022/11/14 07:28:26;;;;;;;;;;;17.10;71.00;;;;;;10384292;28;19965;-69
2022/11/14 07:33:29;;;;;;;;;;;17.00;71.20;;;;;;10383992;28;20388;-69
2022/11/14 07:38:31;;;;;;;;;;;17.00;71.10;;;;;;10384069;28;19940;-69
2022/11/14 07:43:33;;;;;;;;;;;17.00;70.90;;;;;;10381651;28;19934;-69
2022/11/14 07:48:35;;;;;;;;;;;17.00;71.00;;;;;;10383237;28;20032;-70
2022/11/14 07:53:37;;;;;;;;;;;17.00;71.00;;;;;;10383754;28;20004;-70
2022/11/14 07:58:39;;;;;;;;;;;17.00;70.80;;;;;;10381518;28;19933;-71
2022/11/14 08:03:41;;;;;;;;;;;16.90;69.90;;;;;;10381646;28;20034;-70
2022/11/14 08:08:46;;;;;;;;;;;16.90;69.50;;;;;;10381165;28;19934;-70
2022/11/14 08:13:48;;;;;;;;;;;16.90;70.00;;;;;;10383115;28;20440;-71
2022/11/14 08:18:50;;;;;;;;;;;16.90;70.10;;;;;;10379824;28;19934;-70
2022/11/14 08:23:51;;;;;;;;;;;16.90;70.20;;;;;;10382893;28;19969;-71
2022/11/14 08:28:53;;;;;;;;;;;16.90;70.30;;;;;;10382164;28;19985;-70
2022/11/14 08:33:55;;;;;;;;;;;16.90;70.50;;;;;;10381493;28;20020;-71
2022/11/14 08:38:56;;;;;;;;;;;16.90;70.60;;;;;;10381457;28;19940;-71
2022/11/14 08:44:04;;;;;;;;;;;16.90;70.80;;;;;;10379245;28;25757;-71
2022/11/14 08:49:06;;;;;;;;;;;16.90;71.00;;;;;;10380751;28;20032;-70
2022/11/14 08:54:07;;;;;;;;;;;16.90;71.00;;;;;;10382175;28;19973;-72
2022/11/14 08:59:09;;;;;;;;;;;16.90;71.10;;;;;;10381678;28;20055;-69
2022/11/14 09:04:11;;;;;;;;;;;16.90;71.10;;;;;;10380215;28;19934;-68
2022/11/14 09:09:13;;;;;;;;;;;16.90;71.00;;;;;;10380046;28;19934;-69
2022/11/14 09:14:14;;;;;;;;;;;16.90;71.00;;;;;;10380795;28;19961;-70
2022/11/14 09:19:16;;;;;;;;;;;16.90;71.00;;;;;;10380279;28;20024;-70
2022/11/14 09:24:18;;;;;;;;;;;16.90;71.00;;;;;;10381169;28;19934;-70
2022/11/14 09:29:19;;;;;;;;;;;16.90;71.00;;;;;;10385146;28;19976;-70
2022/11/14 09:34:21;;;;;;;;;;;16.90;71.00;;;;;;10387331;28;20376;-70
2022/11/14 09:39:22;;;;;;;;;;;16.90;70.90;;;;;;10387962;28;19940;-70
2022/11/14 09:45:03;;;;;;;;;;;16.90;71.00;;;;;;10387687;28;20378;-71
2022/11/14 09:50:06;;;;;;;;;;;16.90;71.10;;;;;;10259824;28;19938;-71
2022/11/14 09:55:13;;;;;;;;;;;16.90;71.30;;;;;;10359399;28;20016;-71
2022/11/14 10:00:16;;;;;;;;;;;16.90;70.70;;;;;;10387277;28;19934;-71
2022/11/14 10:05:23;;;;;;;;;;;16.90;70.60;;;;;;10387251;28;19941;-71
2022/11/14 10:10:44;;;;;;;;;;;16.90;70.40;;;;;;10386160;28;19989;-72
2022/11/14 10:16:03;;;;;;;;;;;16.80;70.40;;;;;;10385856;28;20032;-71
2022/11/14 10:21:23;;;;;;;;;;;16.90;70.80;;;;;;10386432;28;20077;-71
2022/11/14 10:26:28;;;;;;;;;;;16.90;70.70;;;;;;10386322;28;19969;-70
2022/11/14 10:31:40;;;;;;;;;;;16.90;70.70;;;;;;10385990;28;20079;-70
2022/11/14 10:37:00;;;;;;;;;;;16.80;70.50;;;;;;10386656;28;19933;-71
2022/11/14 10:42:08;;;;;;;;;;;16.80;70.60;;;;;;10384126;28;19962;-70
2022/11/14 10:47:13;;;;;;;;;;;16.80;70.50;;;;;;10385818;28;20020;-70
2022/11/14 10:52:17;;;;;;;;;;;16.80;70.50;;;;;;10385413;28;20017;-71
2022/11/14 10:57:19;;;;;;;;;;;16.80;70.70;;;;;;10383737;28;20012;-70
2022/11/14 11:02:21;;;;;;;;;;;16.80;70.70;;;;;;10385321;28;19984;-71
2022/11/14 11:12:51;;;;;;;;;;;16.70;70.70;;;;;;10384619;28;20448;-70
2022/11/14 11:17:56;;;;;;;;;;;16.70;70.70;;;;;;10384386;28;19934;-70
2022/11/14 11:23:06;;;;;;;;;;;16.70;70.90;;;;;;10383665;28;20020;-70
2022/11/14 11:28:10;;;;;;;;;;;16.70;70.90;;;;;;10384304;28;19933;-71
2022/11/14 11:33:16;;;;;;;;;;;16.70;71.10;;;;;;10384641;28;20024;-71
2022/11/14 11:38:18;;;;;;;;;;;16.70;71.20;;;;;;10384141;28;20028;-70
2022/11/14 11:43:30;;;;;;;;;;;16.70;71.10;;;;;;10384281;28;20012;-70
2022/11/14 11:48:41;;;;;;;;;;;16.70;71.30;;;;;;10383912;28;19933;-69
2022/11/14 11:53:45;;;;;;;;;;;16.70;71.30;;;;;;10382572;28;20025;-70
2022/11/14 11:58:52;;;;;;;;;;;16.80;71.30;;;;;;10383503;28;20024;-70
2022/11/14 12:03:54;;;;;;;;;;;16.80;71.30;;;;;;10382814;28;20739;-70
2022/11/14 12:09:01;;;;;;;;;;;16.80;71.40;;;;;;10382401;28;19937;-70
2022/11/14 12:14:33;;;;;;;;;;;16.80;71.40;;;;;;10383362;28;20004;-70
2022/11/14 12:19:44;;;;;;;;;;;16.80;71.40;;;;;;10369134;28;19969;-70
2022/11/14 12:25:12;;;;;;;;;;;16.80;71.40;;;;;;10380875;28;19934;-71
2022/11/14 12:30:14;;;;;;;;;;;16.80;71.40;;;;;;10381719;28;20044;-70
2022/11/14 12:35:21;;;;;;;;;;;16.90;71.60;;;;;;10382530;28;20320;-70
2022/11/14 12:40:28;;;;;;;;;;;16.90;71.50;;;;;;10381878;28;20397;-70
2022/11/14 12:45:39;;;;;;;;;;;16.90;71.50;;;;;;10382109;28;20129;-71
2022/11/14 12:50:41;;;;;;;;;;;16.90;71.50;;;;;;10382036;28;20470;-70
2022/11/14 12:55:43;;;;;;;;;;;16.90;71.60;;;;;;10382207;28;20388;-70
2022/11/14 13:00:45;;;;;;;;;;;16.90;71.60;;;;;;10382145;28;20431;-70
2022/11/14 13:05:56;;;;;;;;;;;16.90;71.60;;;;;;10387982;28;20456;-70
2022/11/14 13:10:58;;;;;;;;;;;16.90;71.50;;;;;;10389134;28;19940;-70
2022/11/14 13:26:48;;;;;;;;;;;16.90;71.60;;;;;;10387784;28;20016;-71
2022/11/14 13:31:50;;;;;;;;;;;16.80;71.60;;;;;;10386759;28;20028;-71
2022/11/14 13:37:15;;;;;;;;;;;16.80;71.60;;;;;;10387789;28;20028;-71
2022/11/14 13:42:36;;;;;;;;;;;16.80;71.60;;;;;;10385749;28;20031;-70
2022/11/14 13:47:58;;;;;;;;;;;16.80;71.60;;;;;;10385260;28;19933;-71
2022/11/14 13:52:59;;;;;;;;;;;16.80;71.60;;;;;;10356288;28;20029;-71
2022/11/14 13:58:16;;;;;;;;;;;16.80;71.50;;;;;;10387511;28;20471;-71
2022/11/14 14:03:26;;;;;;;;;;;16.70;71.50;;;;;;10386355;28;19940;-71
2022/11/14 14:08:40;;;;;;;;;;;16.70;71.50;;;;;;10387578;28;19969;-71
2022/11/14 14:13:48;;;;;;;;;;;16.70;71.50;;;;;;10385838;28;20493;-71
2022/11/14 14:19:02;;;;;;;;;;;16.70;71.50;;;;;;10386421;28;19984;-71
2022/11/14 14:24:16;;;;;;;;;;;16.70;71.30;;;;;;10385745;28;19985;-71
2022/11/14 14:29:29;;;;;;;;;;;16.60;71.30;;;;;;10386523;28;20369;-70
2022/11/14 14:34:31;;;;;;;;;;;16.60;71.50;;;;;;10386726;28;19977;-71
2022/11/14 14:39:32;;;;;;;;;;;16.60;71.40;;;;;;10386956;28;19941;-71
2022/11/14 14:44:37;;;;;;;;;;;16.60;71.30;;;;;;10386390;28;20539;-72
2022/11/14 14:49:39;;;;;;;;;;;16.60;71.40;;;;;;10384703;28;19944;-71
2022/11/14 14:54:41;;;;;;;;;;;16.60;71.40;;;;;;10385445;28;20418;-69
2022/11/14 14:59:43;;;;;;;;;;;16.60;71.40;;;;;;10383544;28;19934;-71
2022/11/14 15:04:45;;;;;;;;;;;16.50;71.30;;;;;;10384886;28;20439;-70
2022/11/14 15:09:50;;;;;;;;;;;16.50;71.20;;;;;;10383742;28;20032;-71
2022/11/14 15:14:52;;;;;;;;;;;16.50;71.30;;;;;;10384541;28;19934;-70
2022/11/14 15:19:54;;;;;;;;;;;16.50;71.20;;;;;;10383253;28;20448;-70
2022/11/14 15:25:22;;;;;;;;;;;16.60;71.20;;;;;;10384287;28;19933;-70
2022/11/14 15:30:25;;;;;;;;;;;16.50;71.20;;;;;;10382306;28;19934;-70
2022/11/14 15:35:30;;;;;;;;;;;16.50;71.20;;;;;;10385518;28;19941;-69
2022/11/14 15:40:32;;;;;;;;;;;16.50;71.10;;;;;;10384747;28;20024;-70
2022/11/14 15:45:39;;;;;;;;;;;16.50;71.00;;;;;;10382352;28;19938;-71
2022/11/14 15:50:41;;;;;;;;;;;16.50;71.00;;;;;;10383555;28;19969;-70
2022/11/14 15:55:43;;;;;;;;;;;16.50;71.10;;;;;;10387438;28;19973;-70
2022/11/14 16:00:47;;;;;;;;;;;16.50;71.00;;;;;;10418324;28;20041;-70
2022/11/14 16:05:49;;;;;;;;;;;16.50;71.00;;;;;;10423124;28;19934;-70
2022/11/14 16:10:50;;;;;;;;;;;16.50;71.00;;;;;;10438442;28;20306;-70
2022/11/14 16:15:52;;;;;;;;;;;16.50;71.00;;;;;;10422805;28;19933;-71
2022/11/14 16:20:58;;;;;;;;;;;16.40;71.10;;;;;;10424774;28;20007;-71
2022/11/14 16:25:59;;;;;;;;;;;16.40;71.10;;;;;;10422211;28;19955;-70
2022/11/14 16:31:01;;;;;;;;;;;16.50;71.10;;;;;;10423323;28;20022;-70
2022/11/14 16:36:03;;;;;;;;;;;16.40;71.00;;;;;;10423487;28;20023;-70
2022/11/14 16:41:05;;;;;;;;;;;16.40;71.10;;;;;;10423338;28;19933;-70
2022/11/14 16:46:08;;;;;;;;;;;16.40;71.10;;;;;;10422962;28;19933;-70
2022/11/14 16:51:10;;;;;;;;;;;16.40;71.10;;;;;;10423227;28;19941;-70
2022/11/14 16:56:32;;;;;;;;;;;16.40;71.20;;;;;;10421585;28;19934;-71
2022/11/14 17:01:34;;;;;;;;;;;16.40;71.10;;;;;;10421930;28;19977;-70
2022/11/14 17:06:35;;;;;;;;;;;16.40;71.10;;;;;;10422449;28;19933;-71
2022/11/14 17:11:37;;;;;;;;;;;16.40;70.50;;;;;;10423105;28;20016;-70
2022/11/14 17:16:39;;;;;;;;;;;16.50;70.90;;;;;;10422718;28;19933;-70
2022/11/14 17:21:42;;;;;;;;;;;16.70;70.70;;;;;;10437604;28;19933;-70
2022/11/14 17:26:43;;;;;;;;;;;17.00;70.30;;;;;;10421514;28;20033;-71
2022/11/14 17:31:45;;;;;;;;;;;17.20;69.60;;;;;;10421375;28;19933;-71
2022/11/14 17:36:47;;;;;;;;;;;17.40;69.00;;;;;;10420862;28;19933;-70
2022/11/14 17:41:49;;;;;;;;;;;17.60;68.40;;;;;;10403587;28;20017;-70
2022/11/14 17:46:52;;;;;;;;;;;17.70;67.90;;;;;;10421313;28;19933;-70
2022/11/14 17:51:54;;;;;;;;;;;17.80;68.50;;;;;;10427994;28;19984;-70
2022/11/14 17:56:57;;;;;;;;;;;17.90;68.10;;;;;;10428523;28;19983;-70
2022/11/14 18:01:59;;;;;;;;;;;18.00;68.10;;;;;;10428080;28;19934;-70
2022/11/14 18:07:00;;;;;;;;;;;18.00;68.00;;;;;;10428044;28;19933;-70
2022/11/14 18:12:02;;;;;;;;;;;18.00;68.00;;;;;;10428964;28;19933;-71
2022/11/14 18:17:04;;;;;;;;;;;18.00;68.10;;;;;;10427834;28;20004;-71
2022/11/14 18:22:14;;;;;;;;;;;18.10;68.20;;;;;;10427374;28;20334;-71
2022/11/14 18:27:15;;;;;;;;;;;18.30;67.90;;;;;;10427568;28;20669;-71
2022/11/14 18:32:17;;;;;;;;;;;18.40;67.60;;;;;;10426389;28;19933;-70
2022/11/14 18:37:19;;;;;;;;;;;18.40;67.30;;;;;;10426060;28;19934;-71
2022/11/14 18:42:21;;;;;;;;;;;18.40;67.20;;;;;;10426727;28;19933;-70
2022/11/14 18:47:22;;;;;;;;;;;18.30;67.30;;;;;;10426469;28;20378;-70
2022/11/14 18:52:24;;;;;;;;;;;18.30;67.60;;;;;;10426904;28;20020;-69
2022/11/14 18:57:26;;;;;;;;;;;18.30;67.40;;;;;;10427220;28;19934;-71
2022/11/14 19:02:27;;;;;;;;;;;18.30;67.30;;;;;;10425624;28;19934;-70
2022/11/14 19:07:29;;;;;;;;;;;18.30;67.30;;;;;;10425138;28;20034;-70
2022/11/14 19:12:31;;;;;;;;;;;18.20;67.40;;;;;;10424402;28;19934;-71
2022/11/14 19:17:32;;;;;;;;;;;18.10;67.60;;;;;;10424281;28;20415;-70
2022/11/14 19:22:34;;;;;;;;;;;18.00;67.70;;;;;;10424994;28;19972;-70
2022/11/14 19:27:36;;;;;;;;;;;17.90;68.00;;;;;;10424639;28;20551;-71
2022/11/14 19:32:38;;;;;;;;;;;18.00;68.10;;;;;;10424001;28;20399;-71
2022/11/14 19:37:39;;;;;;;;;;;18.20;68.10;;;;;;10425550;28;20019;-72
2022/11/14 19:42:42;;;;;;;;;;;18.30;67.70;;;;;;10424233;28;20039;-71
2022/11/14 19:47:43;;;;;;;;;;;18.40;67.40;;;;;;10423925;28;20038;-71
2022/11/14 19:52:45;;;;;;;;;;;18.40;67.10;;;;;;10423299;28;20028;-71
2022/11/14 19:57:46;;;;;;;;;;;18.40;67.10;;;;;;10438891;28;19940;-72
2022/11/14 20:02:48;;;;;;;;;;;18.40;67.10;;;;;;10422570;28;20319;-71
2022/11/14 20:07:50;;;;;;;;;;;18.50;67.00;;;;;;10423659;28;19939;-71
2022/11/14 20:12:51;;;;;;;;;;;18.50;67.00;;;;;;10422229;28;20024;-70
2022/11/14 20:17:53;;;;;;;;;;;18.60;66.80;;;;;;10423240;28;20076;-71
2022/11/14 20:22:55;;;;;;;;;;;18.60;66.60;;;;;;10422950;28;19940;-70
2022/11/14 20:27:58;;;;;;;;;;;18.60;66.50;;;;;;10422681;28;19933;-71
2022/11/14 20:32:59;;;;;;;;;;;18.50;66.50;;;;;;10422716;28;19933;-71
2022/11/14 20:38:01;;;;;;;;;;;18.40;66.60;;;;;;10422842;28;19933;-71
2022/11/14 20:43:06;;;;;;;;;;;18.30;66.70;;;;;;10423342;28;20482;-72
2022/11/14 20:48:07;;;;;;;;;;;18.20;67.00;;;;;;10422999;28;19938;-71
2022/11/14 20:53:09;;;;;;;;;;;18.10;67.20;;;;;;10422800;28;20024;-71
2022/11/14 20:58:14;;;;;;;;;;;18.00;67.40;;;;;;10422372;28;20071;-71
2022/11/14 21:03:17;;;;;;;;;;;17.90;67.50;;;;;;10418957;28;19939;-71
2022/11/14 21:08:19;;;;;;;;;;;17.80;67.80;;;;;;10420547;28;19940;-71
2022/11/14 21:18:41;;;;;;;;;;;17.60;67.80;;;;;;10422577;28;19937;-71
2022/11/14 21:23:49;;;;;;;;;;;17.60;67.80;;;;;;10424464;28;19937;-69
2022/11/14 21:28:55;;;;;;;;;;;17.50;67.80;;;;;;10427983;28;19969;-70
2022/11/14 21:33:58;;;;;;;;;;;17.40;67.80;;;;;;10429015;28;19937;-71
2022/11/14 21:38:59;;;;;;;;;;;17.40;67.70;;;;;;10429594;28;19969;-71
2022/11/14 21:44:02;;;;;;;;;;;17.30;67.90;;;;;;10429016;28;19933;-71
2022/11/14 21:49:03;;;;;;;;;;;17.30;67.90;;;;;;10428194;28;20044;-71
2022/11/14 21:54:05;;;;;;;;;;;17.20;67.90;;;;;;10428912;28;19933;-71
2022/11/14 21:59:11;;;;;;;;;;;17.20;67.80;;;;;;10427700;28;19980;-70
2022/11/14 22:04:14;;;;;;;;;;;17.10;67.90;;;;;;10426796;28;20394;-71
2022/11/14 22:09:16;;;;;;;;;;;17.10;67.90;;;;;;10427590;28;19940;-71
2022/11/14 22:14:17;;;;;;;;;;;17.10;67.90;;;;;;10427597;28;20718;-71
2022/11/14 22:19:19;;;;;;;;;;;17.00;67.90;;;;;;10428378;28;19933;-72
2022/11/14 22:24:21;;;;;;;;;;;17.00;67.90;;;;;;10427758;28;20061;-71
2022/11/14 22:29:23;;;;;;;;;;;17.00;68.00;;;;;;10428130;28;20028;-71
2022/11/14 22:34:24;;;;;;;;;;;16.90;67.90;;;;;;10426300;28;19976;-72
2022/11/14 22:39:26;;;;;;;;;;;16.90;68.00;;;;;;10427273;28;19933;-72
2022/11/14 22:44:28;;;;;;;;;;;16.90;68.10;;;;;;10427651;28;19984;-69
2022/11/14 22:49:30;;;;;;;;;;;16.90;68.10;;;;;;10426026;28;20439;-69
2022/11/14 22:54:31;;;;;;;;;;;16.80;68.00;;;;;;10427092;28;20736;-70
2022/11/14 22:59:33;;;;;;;;;;;16.80;67.90;;;;;;10427282;28;20459;-69
2022/11/14 23:04:34;;;;;;;;;;;16.80;68.00;;;;;;10426366;28;19940;-70
2022/11/14 23:09:36;;;;;;;;;;;16.80;67.90;;;;;;10426022;28;19933;-70
2022/11/14 23:14:38;;;;;;;;;;;16.70;67.90;;;;;;10425010;28;19934;-70
2022/11/14 23:19:39;;;;;;;;;;;16.80;68.10;;;;;;10426389;28;19933;-70
2022/11/14 23:24:41;;;;;;;;;;;16.70;68.00;;;;;;10424291;28;20059;-69
2022/11/14 23:29:43;;;;;;;;;;;16.70;68.00;;;;;;10426319;28;20031;-71
2022/11/14 23:34:44;;;;;;;;;;;16.70;68.00;;;;;;10425797;28;19940;-71
2022/11/14 23:39:46;;;;;;;;;;;16.70;68.20;;;;;;10424345;28;19973;-70
2022/11/14 23:44:47;;;;;;;;;;;16.70;68.00;;;;;;10425719;28;20384;-70
2022/11/14 23:49:49;;;;;;;;;;;16.70;68.00;;;;;;10425992;28;20012;-71
2022/11/14 23:54:51;;;;;;;;;;;16.70;68.00;;;;;;10424826;28;19980;-70
2022/11/14 23:59:52;;;;;;;;;;;16.70;68.10;;;;;;10425168;28;19981;-70
